Time;durP1;ratioP1;P1;durP2;ratioP2;P2;SDS_P1;SDS_P2;PMS_P1;PMS_P2;Temp;Humidity;BMP_temperature;BMP_pressure;BME280_temperature;BME280_humidity;BME280_pressure;Samples;Min_cycle;Max_cycle;Signal;HPM_P1;HPM_P2
2023/06/07 00:00:20;;;;;;;;;;;24.10;47.50;;;;;;20923558;28;20377;-55
2023/06/07 00:10:20;;;;;;;;;;;23.90;49.00;;;;;;20922964;28;19924;-55
2023/06/07 00:20:21;;;;;;;;;;;23.70;49.60;;;;;;20921800;28;19973;-56
2023/06/07 00:30:22;;;;;;;;;;;23.60;50.00;;;;;;20922422;28;20319;-55
2023/06/07 00:40:22;;;;;;;;;;;23.40;49.80;;;;;;20919319;28;19936;-55
2023/06/07 00:50:23;;;;;;;;;;;23.40;50.30;;;;;;20920940;28;20016;-55
2023/06/07 01:00:24;;;;;;;;;;;23.50;50.90;;;;;;20920573;28;20340;-56
2023/06/07 01:10:25;;;;;;;;;;;23.40;51.90;;;;;;20921049;28;20366;-55
2023/06/07 01:20:26;;;;;;;;;;;23.30;52.70;;;;;;20917407;28;20350;-57
2023/06/07 01:30:31;;;;;;;;;;;23.20;52.80;;;;;;20917974;28;19924;-55
2023/06/07 01:40:32;;;;;;;;;;;23.10;52.80;;;;;;20916810;28;19928;-56
2023/06/07 01:50:33;;;;;;;;;;;23.10;53.00;;;;;;20915545;28;19932;-55
2023/06/07 02:00:34;;;;;;;;;;;23.00;52.40;;;;;;20914619;28;19924;-56
2023/06/07 02:10:34;;;;;;;;;;;22.90;52.40;;;;;;20912783;28;19932;-55
2023/06/07 02:20:35;;;;;;;;;;;22.70;52.30;;;;;;20913539;28;20444;-56
2023/06/07 02:30:35;;;;;;;;;;;22.70;51.70;;;;;;20913207;28;19925;-55
2023/06/07 02:40:36;;;;;;;;;;;22.70;52.40;;;;;;20913119;28;19978;-56
2023/06/07 02:50:37;;;;;;;;;;;22.60;52.50;;;;;;20912530;28;19972;-55
2023/06/07 03:00:37;;;;;;;;;;;22.60;51.80;;;;;;20924975;28;20007;-55
2023/06/07 03:10:38;;;;;;;;;;;22.50;51.20;;;;;;20929887;28;20061;-56
2023/06/07 03:20:38;;;;;;;;;;;22.50;50.90;;;;;;20927531;28;19972;-56
2023/06/07 03:30:40;;;;;;;;;;;22.40;51.10;;;;;;20928286;28;20270;-55
2023/06/07 03:40:40;;;;;;;;;;;22.10;54.60;;;;;;20927821;28;19924;-55
2023/06/07 03:50:41;;;;;;;;;;;22.00;57.80;;;;;;20927359;28;20302;-57
2023/06/07 04:00:41;;;;;;;;;;;21.80;59.00;;;;;;20925092;28;19929;-56
2023/06/07 04:10:42;;;;;;;;;;;21.60;61.10;;;;;;20923070;28;20305;-56
2023/06/07 04:20:43;;;;;;;;;;;21.50;61.00;;;;;;20923645;28;19951;-55
2023/06/07 04:30:44;;;;;;;;;;;21.30;63.20;;;;;;20924012;28;19924;-56
2023/06/07 04:40:48;;;;;;;;;;;21.00;64.50;;;;;;20923225;28;19925;-54
2023/06/07 04:51:03;;;;;;;;;;;20.80;66.90;;;;;;20922308;28;19932;-55
2023/06/07 05:01:04;;;;;;;;;;;20.70;67.60;;;;;;20922093;28;19970;-54
2023/06/07 05:11:05;;;;;;;;;;;20.50;68.80;;;;;;20919554;28;19925;-55
2023/06/07 05:21:06;;;;;;;;;;;20.40;69.20;;;;;;20919943;28;19951;-55
2023/06/07 05:31:06;;;;;;;;;;;20.30;70.30;;;;;;20917811;28;19932;-55
2023/06/07 05:41:07;;;;;;;;;;;20.20;69.60;;;;;;20918171;28;19924;-56
2023/06/07 05:51:10;;;;;;;;;;;20.20;71.00;;;;;;20917193;28;19925;-54
2023/06/07 06:01:12;;;;;;;;;;;20.20;69.70;;;;;;20916052;28;19979;-53
2023/06/07 06:11:13;;;;;;;;;;;20.10;70.30;;;;;;20914996;28;19924;-55
2023/06/07 06:21:14;;;;;;;;;;;20.20;68.40;;;;;;20913973;28;20385;-54
2023/06/07 06:31:15;;;;;;;;;;;20.00;69.60;;;;;;20912473;28;20290;-53
2023/06/07 06:41:16;;;;;;;;;;;19.90;70.40;;;;;;20913507;28;19982;-53
2023/06/07 06:51:17;;;;;;;;;;;19.80;71.20;;;;;;20913588;28;19968;-54
2023/06/07 07:01:18;;;;;;;;;;;19.80;71.20;;;;;;20912785;28;19967;-54
2023/06/07 07:11:18;;;;;;;;;;;19.90;71.00;;;;;;20911917;28;19936;-55
2023/06/07 07:21:19;;;;;;;;;;;19.80;71.60;;;;;;20911105;28;20012;-55
2023/06/07 07:31:21;;;;;;;;;;;19.70;72.40;;;;;;20910750;28;19928;-53
2023/06/07 07:41:21;;;;;;;;;;;19.70;73.90;;;;;;20914275;28;19924;-54
2023/06/07 07:51:22;;;;;;;;;;;19.60;74.60;;;;;;20927270;28;20378;-56
2023/06/07 08:01:22;;;;;;;;;;;19.60;74.70;;;;;;20923743;28;19924;-53
2023/06/07 08:11:24;;;;;;;;;;;20.80;69.70;;;;;;20922222;28;19931;-55
2023/06/07 08:21:27;;;;;;;;;;;21.30;70.90;;;;;;20922600;28;20404;-53
2023/06/07 08:31:28;;;;;;;;;;;21.70;71.20;;;;;;20923127;28;19987;-55
2023/06/07 08:41:29;;;;;;;;;;;22.00;69.90;;;;;;20921741;28;19924;-55
2023/06/07 08:51:31;;;;;;;;;;;22.20;69.40;;;;;;20921279;28;20012;-56
2023/06/07 09:01:35;;;;;;;;;;;22.30;69.20;;;;;;20918953;28;19929;-55
2023/06/07 09:11:35;;;;;;;;;;;22.40;68.60;;;;;;20919047;28;19925;-56
2023/06/07 09:21:37;;;;;;;;;;;22.60;68.20;;;;;;20917840;28;19925;-53
2023/06/07 09:31:38;;;;;;;;;;;22.60;68.00;;;;;;20918398;28;20034;-56
2023/06/07 09:41:38;;;;;;;;;;;22.70;68.00;;;;;;20916192;28;19989;-55
2023/06/07 09:51:42;;;;;;;;;;;22.70;67.90;;;;;;20916520;28;19925;-57
2023/06/07 10:01:45;;;;;;;;;;;22.80;67.60;;;;;;20915378;28;20374;-59
2023/06/07 10:11:46;;;;;;;;;;;22.90;67.60;;;;;;20915309;28;19932;-56
2023/06/07 10:21:49;;;;;;;;;;;22.80;67.50;;;;;;20913929;28;19932;-54
2023/06/07 10:32:04;;;;;;;;;;;22.00;68.30;;;;;;20913446;28;19932;-54
2023/06/07 10:42:06;;;;;;;;;;;21.70;69.70;;;;;;20914198;28;19968;-55
2023/06/07 10:52:07;;;;;;;;;;;21.70;69.80;;;;;;20913777;28;19928;-54
2023/06/07 11:02:29;;;;;;;;;;;21.90;68.70;;;;;;20913232;28;19925;-54
2023/06/07 11:12:36;;;;;;;;;;;21.80;68.80;;;;;;20912449;28;19959;-54
2023/06/07 11:22:36;;;;;;;;;;;21.70;69.70;;;;;;20923258;28;19924;-55
2023/06/07 11:32:37;;;;;;;;;;;21.70;69.70;;;;;;20926918;28;20011;-57
2023/06/07 11:42:39;;;;;;;;;;;22.20;67.90;;;;;;20925522;28;19970;-57
2023/06/07 11:52:39;;;;;;;;;;;22.10;67.30;;;;;;20924190;28;19931;-53
2023/06/07 12:02:40;;;;;;;;;;;21.80;67.40;;;;;;20924236;28;19976;-54
2023/06/07 12:12:42;;;;;;;;;;;21.60;70.30;;;;;;20922683;28;19924;-54
2023/06/07 12:22:42;;;;;;;;;;;21.40;71.60;;;;;;20922364;28;20003;-53
2023/06/07 12:32:43;;;;;;;;;;;21.50;71.70;;;;;;20920127;28;19987;-54
2023/06/07 12:42:45;;;;;;;;;;;21.40;71.10;;;;;;20920782;28;19925;-55
2023/06/07 12:52:46;;;;;;;;;;;21.40;71.20;;;;;;20920822;28;19931;-54
2023/06/07 13:02:47;;;;;;;;;;;21.50;69.80;;;;;;20919874;28;19960;-54
2023/06/07 13:12:48;;;;;;;;;;;21.40;70.20;;;;;;20919025;28;19932;-54
2023/06/07 13:22:48;;;;;;;;;;;21.60;68.50;;;;;;20918568;28;19925;-54
2023/06/07 13:32:49;;;;;;;;;;;21.50;69.60;;;;;;20918136;28;19924;-54
2023/06/07 13:42:50;;;;;;;;;;;21.50;70.70;;;;;;20915798;28;19928;-53
2023/06/07 13:52:52;;;;;;;;;;;21.60;71.10;;;;;;20916220;28;19931;-53
2023/06/07 14:02:54;;;;;;;;;;;21.40;71.10;;;;;;20914325;28;19925;-53
2023/06/07 14:12:55;;;;;;;;;;;21.40;73.20;;;;;;20914930;28;20051;-55
2023/06/07 14:22:56;;;;;;;;;;;21.40;73.70;;;;;;20913690;28;20374;-55
2023/06/07 14:32:57;;;;;;;;;;;21.40;73.10;;;;;;20913886;28;19924;-54
2023/06/07 14:42:58;;;;;;;;;;;20.90;74.80;;;;;;20914185;28;19929;-55
2023/06/07 14:52:58;;;;;;;;;;;20.80;76.70;;;;;;20912445;28;19977;-54
2023/06/07 15:02:59;;;;;;;;;;;20.60;75.40;;;;;;20912902;28;19932;-54
2023/06/07 15:13:00;;;;;;;;;;;20.60;75.70;;;;;;20912423;28;19924;-54
2023/06/07 15:23:00;;;;;;;;;;;20.90;76.10;;;;;;20911079;28;19925;-54
2023/06/07 15:33:01;;;;;;;;;;;20.80;76.30;;;;;;20909558;28;19983;-53
2023/06/07 15:43:01;;;;;;;;;;;21.00;76.50;;;;;;20909712;28;20381;-54
2023/06/07 15:53:02;;;;;;;;;;;21.20;75.90;;;;;;20909377;28;19975;-53
2023/06/07 16:03:03;;;;;;;;;;;21.20;74.80;;;;;;20912283;28;20016;-52
2023/06/07 16:13:04;;;;;;;;;;;21.20;75.50;;;;;;20923971;28;20390;-54
2023/06/07 16:23:05;;;;;;;;;;;21.10;74.30;;;;;;20922087;28;19947;-53
2023/06/07 16:33:05;;;;;;;;;;;21.20;73.10;;;;;;20922901;28;19925;-53
2023/06/07 16:43:06;;;;;;;;;;;21.20;70.60;;;;;;20921581;28;19925;-54
2023/06/07 16:53:07;;;;;;;;;;;21.30;70.40;;;;;;20921260;28;19924;-54
2023/06/07 17:03:07;;;;;;;;;;;21.40;70.10;;;;;;20920783;28;19932;-54
2023/06/07 17:13:09;;;;;;;;;;;21.40;70.30;;;;;;20918974;28;19924;-56
2023/06/07 17:23:09;;;;;;;;;;;21.50;69.70;;;;;;20918424;28;19946;-53
2023/06/07 17:33:10;;;;;;;;;;;21.60;69.50;;;;;;20918347;28;20390;-55
2023/06/07 17:43:11;;;;;;;;;;;21.70;69.30;;;;;;20917703;28;19928;-54
2023/06/07 17:53:14;;;;;;;;;;;21.60;69.60;;;;;;20914665;28;19925;-55
2023/06/07 18:03:17;;;;;;;;;;;21.60;69.50;;;;;;20915149;28;20490;-55
2023/06/07 18:13:18;;;;;;;;;;;21.60;70.00;;;;;;20913677;28;20011;-54
2023/06/07 18:23:18;;;;;;;;;;;21.60;69.00;;;;;;20913807;28;19968;-54
2023/06/07 18:33:19;;;;;;;;;;;21.50;70.70;;;;;;20913375;28;19986;-55
2023/06/07 18:43:20;;;;;;;;;;;21.20;73.10;;;;;;20913879;28;20409;-55
2023/06/07 18:53:20;;;;;;;;;;;21.20;73.90;;;;;;20913344;28;20047;-55
2023/06/07 19:03:21;;;;;;;;;;;20.80;75.00;;;;;;20913372;28;19925;-55
2023/06/07 19:13:26;;;;;;;;;;;20.60;77.60;;;;;;20912993;28;19925;-55
2023/06/07 19:23:26;;;;;;;;;;;20.50;77.90;;;;;;20911073;28;19924;-55
2023/06/07 19:33:27;;;;;;;;;;;20.40;78.70;;;;;;20910949;28;19925;-55
2023/06/07 19:43:28;;;;;;;;;;;20.30;79.40;;;;;;20922504;28;19925;-56
2023/06/07 19:53:28;;;;;;;;;;;20.40;78.90;;;;;;20924345;28;19925;-56
2023/06/07 20:03:30;;;;;;;;;;;20.30;79.10;;;;;;20924061;28;19986;-54
2023/06/07 20:13:30;;;;;;;;;;;20.20;79.10;;;;;;20924269;28;19925;-55
2023/06/07 20:23:31;;;;;;;;;;;20.20;79.10;;;;;;20922474;28;19975;-54
2023/06/07 20:33:31;;;;;;;;;;;20.30;79.10;;;;;;20922862;28;19925;-55
2023/06/07 20:43:32;;;;;;;;;;;20.30;79.00;;;;;;20921307;28;19924;-54
2023/06/07 20:53:33;;;;;;;;;;;20.40;79.10;;;;;;20919942;28;19936;-56
2023/06/07 21:03:33;;;;;;;;;;;20.40;79.30;;;;;;20920507;28;20402;-56
2023/06/07 21:13:34;;;;;;;;;;;20.40;79.50;;;;;;20917718;28;19924;-55
2023/06/07 21:23:35;;;;;;;;;;;20.50;79.30;;;;;;20917164;28;19925;-55
2023/06/07 21:33:36;;;;;;;;;;;20.40;79.40;;;;;;20918115;28;19924;-55
2023/06/07 21:43:37;;;;;;;;;;;20.30;79.50;;;;;;20915627;28;19968;-55
2023/06/07 21:53:37;;;;;;;;;;;20.20;79.40;;;;;;20914381;28;20073;-54
2023/06/07 22:03:38;;;;;;;;;;;20.20;79.50;;;;;;20916029;28;19968;-55
2023/06/07 22:13:39;;;;;;;;;;;20.20;79.30;;;;;;20915464;28;20441;-54
2023/06/07 22:23:40;;;;;;;;;;;20.20;78.90;;;;;;20913852;28;19932;-56
2023/06/07 22:33:41;;;;;;;;;;;20.10;78.70;;;;;;20914405;28;19925;-55
2023/06/07 22:43:41;;;;;;;;;;;20.10;78.90;;;;;;20913888;28;20370;-56
2023/06/07 22:53:42;;;;;;;;;;;20.10;78.30;;;;;;20913153;28;19995;-55
2023/06/07 23:03:43;;;;;;;;;;;20.10;78.20;;;;;;20911582;28;19925;-54
2023/06/07 23:13:45;;;;;;;;;;;20.10;77.50;;;;;;20916985;28;19972;-55
2023/06/07 23:23:49;;;;;;;;;;;20.20;77.20;;;;;;20928259;28;19979;-55
2023/06/07 23:33:51;;;;;;;;;;;20.20;77.40;;;;;;20927235;28;19929;-55
2023/06/07 23:43:52;;;;;;;;;;;20.10;77.10;;;;;;20927594;28;19925;-54
2023/06/07 23:53:52;;;;;;;;;;;20.10;77.10;;;;;;20927320;28;20390;-54
